Forbes Field
KFOE : now visible

Airfield :











YOU CAN JOIN US ON...

 
LOGIN :

Register | Disclaimer

   EN    FR    IT 

 









Legend :    VFR   Marginal VFR   IFR   Intensive IFR   Very Intensive IFR
Visi :
Ceiling :
>= 8 km
>= 3000ft
5 to 8 km
1000 to 3000 ft
1500m to 5 km
500 to 1000 ft
800 to 1500m
200 to 500 ft
< 800m
< 200 ft
Symbols :   Thunderstorms  Fog  Heavy snow  Heavy precipitations  Wind > 20 kt






- Airport Elevation : 1078 ft
- IATA code : FOE


KFOE - Forbes Field

CURRENT METAR :
  • 120453Z AUTO 34010KT 10SM CLR M10/M15 A3070 RMK AO2 SLP415 T11001150

EXPIRED METARs :
  • 120353Z 35011KT 10SM CLR M09/M15 A3070 RMK AO2 SLP412 T10941150
  • 120253Z 35009KT 10SM CLR M09/M15 A3068 RMK AO2 SLP407 T10891150 51022

TAF KFOE
Valid from the 12 at 06:00 until the 13 at 06:00 UTC


120532Z 1206/1306 33007KT P6SM SKC
FM121600 20007KT P6SM SKC
FM130000 18012KT P6SM FEW250



MET'MAP, your aeronautical weather chart ! - Copyright ORBIFLY December 2007 - Disclaimer

ORBIFLY MET'MAP TEAM :

Programming & Development : Alexandra Zaïnal
Concept & Development : Baudouin d'Aumeries
Co-Development & Prog : Marc-Olivier Méhu
Technical & hardware support : Manuel Goepfert

Contact : metmap@orbifly.com




SOURCES & CREDITS :

   NOAA       Earth
Advisory